sensor_id;sensor_type;location;lat;lon;timestamp;P1;durP1;ratioP1;P2;durP2;ratioP2
55007;SDS011;40902;45.116;21.296;2024-01-16T00:01:16;5.68;;;4.15;;
55007;SDS011;40902;45.116;21.296;2024-01-16T00:03:43;13.95;;;10.20;;
55007;SDS011;40902;45.116;21.296;2024-01-16T00:06:09;6.85;;;4.95;;
55007;SDS011;40902;45.116;21.296;2024-01-16T00:08:35;7.07;;;5.28;;
55007;SDS011;40902;45.116;21.296;2024-01-16T00:11:01;13.55;;;8.23;;
55007;SDS011;40902;45.116;21.296;2024-01-16T00:13:29;50.20;;;20.50;;
55007;SDS011;40902;45.116;21.296;2024-01-16T00:15:54;39.70;;;19.48;;
55007;SDS011;40902;45.116;21.296;2024-01-16T00:18:23;37.35;;;21.02;;
55007;SDS011;40902;45.116;21.296;2024-01-16T00:20:48;27.60;;;17.25;;
55007;SDS011;40902;45.116;21.296;2024-01-16T00:23:14;28.60;;;14.63;;
55007;SDS011;40902;45.116;21.296;2024-01-16T00:25:40;44.88;;;20.58;;
55007;SDS011;40902;45.116;21.296;2024-01-16T00:28:06;44.00;;;22.55;;
55007;SDS011;40902;45.116;21.296;2024-01-16T00:30:32;40.72;;;21.90;;
55007;SDS011;40902;45.116;21.296;2024-01-16T00:33:01;33.80;;;19.90;;
55007;SDS011;40902;45.116;21.296;2024-01-16T00:35:27;32.13;;;18.40;;
55007;SDS011;40902;45.116;21.296;2024-01-16T00:37:53;23.58;;;14.23;;
55007;SDS011;40902;45.116;21.296;2024-01-16T00:40:19;25.73;;;16.20;;
55007;SDS011;40902;45.116;21.296;2024-01-16T00:42:45;31.50;;;18.92;;
55007;SDS011;40902;45.116;21.296;2024-01-16T00:45:10;24.17;;;15.65;;
55007;SDS011;40902;45.116;21.296;2024-01-16T00:47:36;27.77;;;17.52;;
55007;SDS011;40902;45.116;21.296;2024-01-16T00:50:02;20.25;;;13.52;;
55007;SDS011;40902;45.116;21.296;2024-01-16T00:52:28;19.48;;;11.63;;
55007;SDS011;40902;45.116;21.296;2024-01-16T00:54:54;10.82;;;7.70;;
55007;SDS011;40902;45.116;21.296;2024-01-16T00:57:20;11.02;;;8.05;;
55007;SDS011;40902;45.116;21.296;2024-01-16T00:59:46;11.27;;;8.43;;
55007;SDS011;40902;45.116;21.296;2024-01-16T01:02:12;14.77;;;11.40;;
55007;SDS011;40902;45.116;21.296;2024-01-16T01:04:38;15.45;;;11.80;;
55007;SDS011;40902;45.116;21.296;2024-01-16T01:07:04;15.80;;;12.82;;
55007;SDS011;40902;45.116;21.296;2024-01-16T01:09:32;13.98;;;9.30;;
55007;SDS011;40902;45.116;21.296;2024-01-16T01:11:57;10.85;;;7.85;;
55007;SDS011;40902;45.116;21.296;2024-01-16T01:14:23;9.68;;;7.32;;
55007;SDS011;40902;45.116;21.296;2024-01-16T01:16:50;11.95;;;9.05;;
55007;SDS011;40902;45.116;21.296;2024-01-16T01:19:16;12.50;;;9.23;;
55007;SDS011;40902;45.116;21.296;2024-01-16T01:21:43;12.25;;;9.98;;
55007;SDS011;40902;45.116;21.296;2024-01-16T01:24:08;12.27;;;9.65;;
55007;SDS011;40902;45.116;21.296;2024-01-16T01:26:34;15.25;;;11.52;;
55007;SDS011;40902;45.116;21.296;2024-01-16T01:29:00;14.70;;;10.70;;
55007;SDS011;40902;45.116;21.296;2024-01-16T01:31:27;10.77;;;8.80;;
55007;SDS011;40902;45.116;21.296;2024-01-16T01:33:52;12.38;;;9.43;;
55007;SDS011;40902;45.116;21.296;2024-01-16T01:36:18;14.27;;;11.60;;
55007;SDS011;40902;45.116;21.296;2024-01-16T01:38:44;15.45;;;11.73;;
55007;SDS011;40902;45.116;21.296;2024-01-16T01:41:10;15.93;;;12.00;;
55007;SDS011;40902;45.116;21.296;2024-01-16T01:43:38;17.92;;;13.30;;
55007;SDS011;40902;45.116;21.296;2024-01-16T01:46:17;18.35;;;14.82;;
55007;SDS011;40902;45.116;21.296;2024-01-16T01:48:45;22.58;;;16.48;;
55007;SDS011;40902;45.116;21.296;2024-01-16T01:51:13;20.85;;;15.50;;
55007;SDS011;40902;45.116;21.296;2024-01-16T01:53:41;17.40;;;12.32;;
55007;SDS011;40902;45.116;21.296;2024-01-16T01:56:10;15.48;;;12.63;;
55007;SDS011;40902;45.116;21.296;2024-01-16T01:58:39;17.05;;;13.93;;
55007;SDS011;40902;45.116;21.296;2024-01-16T02:01:08;17.77;;;13.18;;
55007;SDS011;40902;45.116;21.296;2024-01-16T02:03:41;18.23;;;13.30;;
55007;SDS011;40902;45.116;21.296;2024-01-16T02:06:09;18.70;;;13.98;;
55007;SDS011;40902;45.116;21.296;2024-01-16T02:08:36;20.05;;;15.02;;
55007;SDS011;40902;45.116;21.296;2024-01-16T02:11:02;22.40;;;16.05;;
55007;SDS011;40902;45.116;21.296;2024-01-16T02:13:28;18.15;;;13.95;;
55007;SDS011;40902;45.116;21.296;2024-01-16T02:15:54;15.93;;;13.02;;
55007;SDS011;40902;45.116;21.296;2024-01-16T02:18:19;17.95;;;13.73;;
55007;SDS011;40902;45.116;21.296;2024-01-16T02:20:45;18.75;;;13.95;;
55007;SDS011;40902;45.116;21.296;2024-01-16T02:23:13;17.98;;;13.00;;
55007;SDS011;40902;45.116;21.296;2024-01-16T02:25:41;14.52;;;11.27;;
55007;SDS011;40902;45.116;21.296;2024-01-16T02:28:07;15.07;;;12.02;;
55007;SDS011;40902;45.116;21.296;2024-01-16T02:30:33;19.05;;;13.13;;
55007;SDS011;40902;45.116;21.296;2024-01-16T02:32:59;20.08;;;14.68;;
55007;SDS011;40902;45.116;21.296;2024-01-16T02:35:24;20.05;;;15.10;;
55007;SDS011;40902;45.116;21.296;2024-01-16T02:37:50;19.98;;;14.57;;
55007;SDS011;40902;45.116;21.296;2024-01-16T02:40:16;23.75;;;17.23;;
55007;SDS011;40902;45.116;21.296;2024-01-16T02:42:42;23.65;;;16.90;;
55007;SDS011;40902;45.116;21.296;2024-01-16T02:45:08;25.70;;;17.58;;
55007;SDS011;40902;45.116;21.296;2024-01-16T02:47:34;22.67;;;16.42;;
55007;SDS011;40902;45.116;21.296;2024-01-16T02:50:00;30.67;;;20.98;;
55007;SDS011;40902;45.116;21.296;2024-01-16T02:52:27;28.10;;;19.13;;
55007;SDS011;40902;45.116;21.296;2024-01-16T02:54:53;26.73;;;17.20;;
55007;SDS011;40902;45.116;21.296;2024-01-16T02:57:19;28.13;;;16.73;;
55007;SDS011;40902;45.116;21.296;2024-01-16T02:59:45;31.27;;;20.27;;
55007;SDS011;40902;45.116;21.296;2024-01-16T03:02:11;30.60;;;18.38;;
55007;SDS011;40902;45.116;21.296;2024-01-16T03:04:38;31.08;;;18.73;;
55007;SDS011;40902;45.116;21.296;2024-01-16T03:07:04;28.25;;;17.65;;
55007;SDS011;40902;45.116;21.296;2024-01-16T03:09:30;30.40;;;17.73;;
55007;SDS011;40902;45.116;21.296;2024-01-16T03:11:56;27.70;;;17.85;;
55007;SDS011;40902;45.116;21.296;2024-01-16T03:14:23;31.45;;;20.50;;
55007;SDS011;40902;45.116;21.296;2024-01-16T03:16:48;30.73;;;18.98;;
55007;SDS011;40902;45.116;21.296;2024-01-16T03:19:14;28.58;;;18.75;;
55007;SDS011;40902;45.116;21.296;2024-01-16T03:21:40;28.55;;;18.83;;
55007;SDS011;40902;45.116;21.296;2024-01-16T03:24:06;27.98;;;17.83;;
55007;SDS011;40902;45.116;21.296;2024-01-16T03:26:32;19.67;;;13.32;;
55007;SDS011;40902;45.116;21.296;2024-01-16T03:28:58;20.80;;;13.80;;
55007;SDS011;40902;45.116;21.296;2024-01-16T03:31:24;24.15;;;14.88;;
55007;SDS011;40902;45.116;21.296;2024-01-16T03:33:50;17.98;;;12.45;;
55007;SDS011;40902;45.116;21.296;2024-01-16T03:36:16;18.77;;;13.48;;
55007;SDS011;40902;45.116;21.296;2024-01-16T03:38:42;20.83;;;13.50;;
55007;SDS011;40902;45.116;21.296;2024-01-16T03:41:10;19.25;;;12.77;;
55007;SDS011;40902;45.116;21.296;2024-01-16T03:43:36;19.17;;;13.48;;
55007;SDS011;40902;45.116;21.296;2024-01-16T03:46:02;21.45;;;14.73;;
55007;SDS011;40902;45.116;21.296;2024-01-16T03:48:28;19.38;;;13.25;;
55007;SDS011;40902;45.116;21.296;2024-01-16T03:50:54;18.58;;;12.95;;
55007;SDS011;40902;45.116;21.296;2024-01-16T03:53:20;16.75;;;12.88;;
55007;SDS011;40902;45.116;21.296;2024-01-16T03:55:47;17.63;;;12.75;;
55007;SDS011;40902;45.116;21.296;2024-01-16T03:58:13;14.00;;;11.35;;
55007;SDS011;40902;45.116;21.296;2024-01-16T04:00:38;18.27;;;12.70;;
55007;SDS011;40902;45.116;21.296;2024-01-16T04:03:04;19.42;;;13.77;;
55007;SDS011;40902;45.116;21.296;2024-01-16T04:05:32;25.38;;;16.35;;
55007;SDS011;40902;45.116;21.296;2024-01-16T04:07:58;22.85;;;15.88;;
55007;SDS011;40902;45.116;21.296;2024-01-16T04:10:24;23.80;;;16.15;;
55007;SDS011;40902;45.116;21.296;2024-01-16T04:12:50;25.45;;;16.58;;
55007;SDS011;40902;45.116;21.296;2024-01-16T04:15:15;22.38;;;15.98;;
55007;SDS011;40902;45.116;21.296;2024-01-16T04:17:41;22.05;;;15.77;;
55007;SDS011;40902;45.116;21.296;2024-01-16T04:20:07;20.52;;;14.40;;
55007;SDS011;40902;45.116;21.296;2024-01-16T04:22:34;20.55;;;14.68;;
55007;SDS011;40902;45.116;21.296;2024-01-16T04:25:01;20.33;;;14.05;;
55007;SDS011;40902;45.116;21.296;2024-01-16T04:27:29;18.17;;;13.40;;
55007;SDS011;40902;45.116;21.296;2024-01-16T04:29:56;19.02;;;14.18;;
55007;SDS011;40902;45.116;21.296;2024-01-16T04:32:22;18.85;;;13.73;;
55007;SDS011;40902;45.116;21.296;2024-01-16T04:34:48;20.20;;;14.88;;
55007;SDS011;40902;45.116;21.296;2024-01-16T04:37:13;18.23;;;14.48;;
55007;SDS011;40902;45.116;21.296;2024-01-16T04:39:39;19.10;;;14.98;;
55007;SDS011;40902;45.116;21.296;2024-01-16T04:42:05;18.83;;;14.57;;
55007;SDS011;40902;45.116;21.296;2024-01-16T04:44:30;18.35;;;14.82;;
55007;SDS011;40902;45.116;21.296;2024-01-16T04:46:56;21.10;;;16.17;;
55007;SDS011;40902;45.116;21.296;2024-01-16T04:49:22;24.27;;;17.00;;
55007;SDS011;40902;45.116;21.296;2024-01-16T04:51:49;22.00;;;16.30;;
55007;SDS011;40902;45.116;21.296;2024-01-16T04:54:14;19.08;;;14.23;;
55007;SDS011;40902;45.116;21.296;2024-01-16T04:56:40;18.40;;;14.55;;
55007;SDS011;40902;45.116;21.296;2024-01-16T04:59:06;19.75;;;15.68;;
55007;SDS011;40902;45.116;21.296;2024-01-16T05:01:32;23.88;;;18.17;;
55007;SDS011;40902;45.116;21.296;2024-01-16T05:03:57;22.77;;;17.80;;
55007;SDS011;40902;45.116;21.296;2024-01-16T05:06:24;24.50;;;17.52;;
55007;SDS011;40902;45.116;21.296;2024-01-16T05:08:49;26.83;;;20.23;;
55007;SDS011;40902;45.116;21.296;2024-01-16T05:11:15;27.95;;;21.85;;
55007;SDS011;40902;45.116;21.296;2024-01-16T05:13:41;33.08;;;22.95;;
55007;SDS011;40902;45.116;21.296;2024-01-16T05:16:07;29.83;;;21.27;;
55007;SDS011;40902;45.116;21.296;2024-01-16T05:18:33;25.27;;;19.02;;
55007;SDS011;40902;45.116;21.296;2024-01-16T05:20:59;22.55;;;17.42;;
55007;SDS011;40902;45.116;21.296;2024-01-16T05:23:24;21.27;;;16.10;;
55007;SDS011;40902;45.116;21.296;2024-01-16T05:25:50;21.33;;;15.52;;
55007;SDS011;40902;45.116;21.296;2024-01-16T05:28:16;17.55;;;13.85;;
55007;SDS011;40902;45.116;21.296;2024-01-16T05:30:42;17.27;;;13.63;;
55007;SDS011;40902;45.116;21.296;2024-01-16T05:33:08;17.17;;;13.48;;
55007;SDS011;40902;45.116;21.296;2024-01-16T05:35:33;18.20;;;13.90;;
55007;SDS011;40902;45.116;21.296;2024-01-16T05:37:59;19.95;;;14.30;;
55007;SDS011;40902;45.116;21.296;2024-01-16T05:40:25;36.15;;;24.88;;
55007;SDS011;40902;45.116;21.296;2024-01-16T05:42:51;20.02;;;15.68;;
55007;SDS011;40902;45.116;21.296;2024-01-16T05:45:17;20.88;;;14.70;;
55007;SDS011;40902;45.116;21.296;2024-01-16T05:47:43;17.80;;;14.63;;
55007;SDS011;40902;45.116;21.296;2024-01-16T05:50:09;18.83;;;14.27;;
55007;SDS011;40902;45.116;21.296;2024-01-16T05:52:35;17.50;;;14.18;;
55007;SDS011;40902;45.116;21.296;2024-01-16T05:55:01;20.38;;;15.95;;
55007;SDS011;40902;45.116;21.296;2024-01-16T05:57:28;20.38;;;14.68;;
55007;SDS011;40902;45.116;21.296;2024-01-16T05:59:57;17.77;;;13.85;;
55007;SDS011;40902;45.116;21.296;2024-01-16T06:02:23;19.15;;;15.02;;
55007;SDS011;40902;45.116;21.296;2024-01-16T06:04:49;20.15;;;14.90;;
55007;SDS011;40902;45.116;21.296;2024-01-16T06:07:15;18.45;;;14.30;;
55007;SDS011;40902;45.116;21.296;2024-01-16T06:09:41;20.38;;;15.55;;
55007;SDS011;40902;45.116;21.296;2024-01-16T06:12:07;24.27;;;18.88;;
55007;SDS011;40902;45.116;21.296;2024-01-16T06:14:33;19.05;;;14.80;;
55007;SDS011;40902;45.116;21.296;2024-01-16T06:16:59;20.17;;;15.15;;
55007;SDS011;40902;45.116;21.296;2024-01-16T06:19:26;19.38;;;14.43;;
55007;SDS011;40902;45.116;21.296;2024-01-16T06:21:53;25.38;;;19.40;;
55007;SDS011;40902;45.116;21.296;2024-01-16T06:24:19;22.55;;;17.17;;
55007;SDS011;40902;45.116;21.296;2024-01-16T06:26:45;18.10;;;14.50;;
55007;SDS011;40902;45.116;21.296;2024-01-16T06:29:10;25.73;;;20.33;;
55007;SDS011;40902;45.116;21.296;2024-01-16T06:31:36;29.55;;;24.15;;
55007;SDS011;40902;45.116;21.296;2024-01-16T06:34:03;31.65;;;25.67;;
55007;SDS011;40902;45.116;21.296;2024-01-16T06:36:29;23.30;;;18.15;;
55007;SDS011;40902;45.116;21.296;2024-01-16T06:38:54;21.40;;;17.48;;
55007;SDS011;40902;45.116;21.296;2024-01-16T06:41:20;19.10;;;14.68;;
55007;SDS011;40902;45.116;21.296;2024-01-16T06:43:46;18.42;;;14.23;;
55007;SDS011;40902;45.116;21.296;2024-01-16T06:46:12;20.02;;;15.45;;
55007;SDS011;40902;45.116;21.296;2024-01-16T06:48:38;20.15;;;16.45;;
55007;SDS011;40902;45.116;21.296;2024-01-16T06:51:04;20.67;;;17.13;;
55007;SDS011;40902;45.116;21.296;2024-01-16T06:53:30;18.67;;;14.73;;
55007;SDS011;40902;45.116;21.296;2024-01-16T06:55:56;19.23;;;14.93;;
55007;SDS011;40902;45.116;21.296;2024-01-16T06:58:21;20.63;;;16.33;;
55007;SDS011;40902;45.116;21.296;2024-01-16T07:00:47;19.65;;;15.02;;
55007;SDS011;40902;45.116;21.296;2024-01-16T07:03:13;21.88;;;16.30;;
55007;SDS011;40902;45.116;21.296;2024-01-16T07:05:39;44.35;;;36.85;;
55007;SDS011;40902;45.116;21.296;2024-01-16T07:08:08;31.08;;;25.73;;
55007;SDS011;40902;45.116;21.296;2024-01-16T07:10:34;24.25;;;18.65;;
55007;SDS011;40902;45.116;21.296;2024-01-16T07:13:01;29.55;;;20.02;;
55007;SDS011;40902;45.116;21.296;2024-01-16T07:15:27;28.98;;;19.90;;
55007;SDS011;40902;45.116;21.296;2024-01-16T07:17:53;29.27;;;19.65;;
55007;SDS011;40902;45.116;21.296;2024-01-16T07:20:19;31.00;;;20.20;;
55007;SDS011;40902;45.116;21.296;2024-01-16T07:22:45;28.90;;;19.13;;
55007;SDS011;40902;45.116;21.296;2024-01-16T07:25:11;33.78;;;23.52;;
55007;SDS011;40902;45.116;21.296;2024-01-16T07:27:37;33.65;;;21.65;;
55007;SDS011;40902;45.116;21.296;2024-01-16T07:30:05;43.47;;;29.83;;
55007;SDS011;40902;45.116;21.296;2024-01-16T07:32:32;35.92;;;27.42;;
55007;SDS011;40902;45.116;21.296;2024-01-16T07:34:58;33.47;;;22.77;;
55007;SDS011;40902;45.116;21.296;2024-01-16T07:37:24;29.92;;;20.33;;
55007;SDS011;40902;45.116;21.296;2024-01-16T07:39:49;36.40;;;24.13;;
55007;SDS011;40902;45.116;21.296;2024-01-16T07:42:15;32.08;;;22.38;;
55007;SDS011;40902;45.116;21.296;2024-01-16T07:44:41;33.75;;;23.38;;
55007;SDS011;40902;45.116;21.296;2024-01-16T07:47:07;34.55;;;22.70;;
55007;SDS011;40902;45.116;21.296;2024-01-16T07:49:33;34.72;;;24.42;;
55007;SDS011;40902;45.116;21.296;2024-01-16T07:51:59;34.53;;;22.83;;
55007;SDS011;40902;45.116;21.296;2024-01-16T07:54:25;39.13;;;27.38;;
55007;SDS011;40902;45.116;21.296;2024-01-16T07:56:51;31.08;;;20.85;;
55007;SDS011;40902;45.116;21.296;2024-01-16T07:59:17;37.42;;;26.70;;
55007;SDS011;40902;45.116;21.296;2024-01-16T08:01:43;42.63;;;30.10;;
55007;SDS011;40902;45.116;21.296;2024-01-16T08:04:09;42.58;;;29.00;;
55007;SDS011;40902;45.116;21.296;2024-01-16T08:06:34;25.10;;;18.20;;
55007;SDS011;40902;45.116;21.296;2024-01-16T08:09:01;28.88;;;20.20;;
55007;SDS011;40902;45.116;21.296;2024-01-16T08:11:26;21.90;;;16.80;;
55007;SDS011;40902;45.116;21.296;2024-01-16T08:13:52;23.83;;;17.88;;
55007;SDS011;40902;45.116;21.296;2024-01-16T08:16:18;23.52;;;17.52;;
55007;SDS011;40902;45.116;21.296;2024-01-16T08:18:44;22.80;;;17.58;;
55007;SDS011;40902;45.116;21.296;2024-01-16T08:21:09;22.50;;;17.85;;
55007;SDS011;40902;45.116;21.296;2024-01-16T08:23:36;20.52;;;15.95;;
55007;SDS011;40902;45.116;21.296;2024-01-16T08:26:02;19.77;;;16.25;;
55007;SDS011;40902;45.116;21.296;2024-01-16T08:28:28;18.20;;;14.93;;
55007;SDS011;40902;45.116;21.296;2024-01-16T08:30:54;17.60;;;14.27;;
55007;SDS011;40902;45.116;21.296;2024-01-16T08:33:19;18.55;;;14.23;;
55007;SDS011;40902;45.116;21.296;2024-01-16T08:35:45;32.28;;;24.75;;
55007;SDS011;40902;45.116;21.296;2024-01-16T08:38:11;20.00;;;15.27;;
55007;SDS011;40902;45.116;21.296;2024-01-16T08:40:37;20.90;;;16.60;;
55007;SDS011;40902;45.116;21.296;2024-01-16T08:43:03;25.95;;;20.77;;
55007;SDS011;40902;45.116;21.296;2024-01-16T08:45:30;21.33;;;16.05;;
55007;SDS011;40902;45.116;21.296;2024-01-16T08:47:55;19.13;;;14.80;;
55007;SDS011;40902;45.116;21.296;2024-01-16T08:50:21;27.05;;;21.13;;
55007;SDS011;40902;45.116;21.296;2024-01-16T08:52:47;22.98;;;18.73;;
55007;SDS011;40902;45.116;21.296;2024-01-16T08:55:13;18.77;;;14.40;;
55007;SDS011;40902;45.116;21.296;2024-01-16T08:57:39;17.48;;;13.85;;
55007;SDS011;40902;45.116;21.296;2024-01-16T09:00:05;17.35;;;13.25;;
55007;SDS011;40902;45.116;21.296;2024-01-16T09:02:34;18.65;;;14.48;;
55007;SDS011;40902;45.116;21.296;2024-01-16T09:05:00;18.15;;;14.85;;
55007;SDS011;40902;45.116;21.296;2024-01-16T09:07:26;19.45;;;14.80;;
55007;SDS011;40902;45.116;21.296;2024-01-16T09:09:52;18.33;;;13.93;;
55007;SDS011;40902;45.116;21.296;2024-01-16T09:12:18;18.23;;;13.77;;
55007;SDS011;40902;45.116;21.296;2024-01-16T09:14:44;17.63;;;14.25;;
55007;SDS011;40902;45.116;21.296;2024-01-16T09:17:10;17.25;;;14.25;;
55007;SDS011;40902;45.116;21.296;2024-01-16T09:19:36;16.52;;;13.13;;
55007;SDS011;40902;45.116;21.296;2024-01-16T09:22:02;16.90;;;13.43;;
55007;SDS011;40902;45.116;21.296;2024-01-16T09:24:28;17.52;;;13.05;;
55007;SDS011;40902;45.116;21.296;2024-01-16T09:26:55;16.90;;;12.52;;
55007;SDS011;40902;45.116;21.296;2024-01-16T09:29:20;16.35;;;12.60;;
55007;SDS011;40902;45.116;21.296;2024-01-16T09:31:50;16.10;;;12.63;;
55007;SDS011;40902;45.116;21.296;2024-01-16T09:34:15;17.48;;;13.40;;
55007;SDS011;40902;45.116;21.296;2024-01-16T09:36:42;18.05;;;13.13;;
55007;SDS011;40902;45.116;21.296;2024-01-16T09:39:08;14.10;;;10.93;;
55007;SDS011;40902;45.116;21.296;2024-01-16T09:41:36;15.50;;;12.10;;
55007;SDS011;40902;45.116;21.296;2024-01-16T09:44:02;13.88;;;11.02;;
55007;SDS011;40902;45.116;21.296;2024-01-16T09:46:28;18.58;;;14.15;;
55007;SDS011;40902;45.116;21.296;2024-01-16T09:48:56;20.75;;;13.55;;
55007;SDS011;40902;45.116;21.296;2024-01-16T09:51:25;16.30;;;11.80;;
55007;SDS011;40902;45.116;21.296;2024-01-16T09:53:51;15.63;;;11.43;;
55007;SDS011;40902;45.116;21.296;2024-01-16T09:56:20;11.45;;;7.90;;
55007;SDS011;40902;45.116;21.296;2024-01-16T09:58:48;15.18;;;11.30;;
55007;SDS011;40902;45.116;21.296;2024-01-16T10:01:15;14.00;;;9.60;;
55007;SDS011;40902;45.116;21.296;2024-01-16T10:03:44;14.52;;;10.60;;
55007;SDS011;40902;45.116;21.296;2024-01-16T10:06:10;12.77;;;9.55;;
55007;SDS011;40902;45.116;21.296;2024-01-16T10:08:37;12.93;;;8.35;;
55007;SDS011;40902;45.116;21.296;2024-01-16T10:11:03;12.60;;;9.52;;
55007;SDS011;40902;45.116;21.296;2024-01-16T10:13:29;12.77;;;8.70;;
55007;SDS011;40902;45.116;21.296;2024-01-16T10:15:56;9.65;;;7.53;;
55007;SDS011;40902;45.116;21.296;2024-01-16T10:18:23;12.40;;;8.63;;
55007;SDS011;40902;45.116;21.296;2024-01-16T10:20:53;12.43;;;8.95;;
55007;SDS011;40902;45.116;21.296;2024-01-16T10:23:22;10.85;;;7.70;;
55007;SDS011;40902;45.116;21.296;2024-01-16T10:28:35;10.68;;;7.65;;
55007;SDS011;40902;45.116;21.296;2024-01-16T10:31:05;11.05;;;7.95;;
55007;SDS011;40902;45.116;21.296;2024-01-16T10:33:32;12.48;;;8.63;;
55007;SDS011;40902;45.116;21.296;2024-01-16T10:38:42;17.05;;;12.75;;
55007;SDS011;40902;45.116;21.296;2024-01-16T10:41:09;12.93;;;8.30;;
55007;SDS011;40902;45.116;21.296;2024-01-16T10:43:39;10.93;;;8.20;;
55007;SDS011;40902;45.116;21.296;2024-01-16T10:46:06;9.70;;;6.80;;
55007;SDS011;40902;45.116;21.296;2024-01-16T10:48:34;9.63;;;6.75;;
55007;SDS011;40902;45.116;21.296;2024-01-16T10:51:01;8.95;;;7.03;;
55007;SDS011;40902;45.116;21.296;2024-01-16T10:53:28;10.13;;;7.05;;
55007;SDS011;40902;45.116;21.296;2024-01-16T10:55:58;9.02;;;5.97;;
55007;SDS011;40902;45.116;21.296;2024-01-16T10:58:26;14.95;;;6.45;;
55007;SDS011;40902;45.116;21.296;2024-01-16T11:00:56;7.93;;;5.43;;
55007;SDS011;40902;45.116;21.296;2024-01-16T11:03:27;12.65;;;8.32;;
55007;SDS011;40902;45.116;21.296;2024-01-16T11:05:59;9.05;;;6.13;;
55007;SDS011;40902;45.116;21.296;2024-01-16T11:08:27;8.38;;;5.85;;
55007;SDS011;40902;45.116;21.296;2024-01-16T11:10:57;8.30;;;4.47;;
55007;SDS011;40902;45.116;21.296;2024-01-16T11:13:24;6.05;;;3.83;;
55007;SDS011;40902;45.116;21.296;2024-01-16T11:15:50;10.07;;;4.82;;
55007;SDS011;40902;45.116;21.296;2024-01-16T11:18:16;5.57;;;4.05;;
55007;SDS011;40902;45.116;21.296;2024-01-16T11:20:44;6.47;;;3.67;;
55007;SDS011;40902;45.116;21.296;2024-01-16T11:23:11;8.00;;;4.43;;
55007;SDS011;40902;45.116;21.296;2024-01-16T11:25:38;6.75;;;3.67;;
55007;SDS011;40902;45.116;21.296;2024-01-16T11:28:11;5.00;;;3.25;;
55007;SDS011;40902;45.116;21.296;2024-01-16T11:30:38;8.95;;;5.15;;
55007;SDS011;40902;45.116;21.296;2024-01-16T11:33:05;9.20;;;6.32;;
55007;SDS011;40902;45.116;21.296;2024-01-16T11:35:35;6.55;;;4.00;;
55007;SDS011;40902;45.116;21.296;2024-01-16T11:38:17;9.45;;;5.85;;
55007;SDS011;40902;45.116;21.296;2024-01-16T11:45:57;5.43;;;3.58;;
55007;SDS011;40902;45.116;21.296;2024-01-16T11:48:26;8.25;;;3.65;;
55007;SDS011;40902;45.116;21.296;2024-01-16T11:50:53;4.50;;;3.10;;
55007;SDS011;40902;45.116;21.296;2024-01-16T11:53:37;11.43;;;8.23;;
55007;SDS011;40902;45.116;21.296;2024-01-16T12:01:20;6.45;;;3.88;;
55007;SDS011;40902;45.116;21.296;2024-01-16T12:03:46;7.03;;;3.78;;
55007;SDS011;40902;45.116;21.296;2024-01-16T12:06:26;4.90;;;2.80;;
55007;SDS011;40902;45.116;21.296;2024-01-16T12:08:51;5.25;;;3.00;;
55007;SDS011;40902;45.116;21.296;2024-01-16T12:11:20;5.47;;;3.65;;
55007;SDS011;40902;45.116;21.296;2024-01-16T12:14:00;7.40;;;3.92;;
55007;SDS011;40902;45.116;21.296;2024-01-16T12:16:27;5.97;;;3.30;;
55007;SDS011;40902;45.116;21.296;2024-01-16T12:19:08;8.88;;;3.35;;
55007;SDS011;40902;45.116;21.296;2024-01-16T12:21:35;4.65;;;2.80;;
55007;SDS011;40902;45.116;21.296;2024-01-16T12:24:08;6.00;;;3.88;;
55007;SDS011;40902;45.116;21.296;2024-01-16T12:26:33;7.43;;;3.38;;
55007;SDS011;40902;45.116;21.296;2024-01-16T12:28:59;5.97;;;2.80;;
55007;SDS011;40902;45.116;21.296;2024-01-16T12:31:25;4.70;;;3.08;;
55007;SDS011;40902;45.116;21.296;2024-01-16T12:33:52;5.55;;;3.25;;
55007;SDS011;40902;45.116;21.296;2024-01-16T12:36:17;7.63;;;3.80;;
55007;SDS011;40902;45.116;21.296;2024-01-16T12:38:43;4.80;;;3.00;;
55007;SDS011;40902;45.116;21.296;2024-01-16T12:41:10;7.15;;;3.90;;
55007;SDS011;40902;45.116;21.296;2024-01-16T12:43:37;4.75;;;3.17;;
55007;SDS011;40902;45.116;21.296;2024-01-16T12:46:03;6.20;;;3.00;;
55007;SDS011;40902;45.116;21.296;2024-01-16T12:48:31;5.88;;;4.15;;
55007;SDS011;40902;45.116;21.296;2024-01-16T12:51:00;5.82;;;3.33;;
55007;SDS011;40902;45.116;21.296;2024-01-16T12:53:27;6.68;;;3.17;;
55007;SDS011;40902;45.116;21.296;2024-01-16T12:55:59;7.57;;;3.90;;
55007;SDS011;40902;45.116;21.296;2024-01-16T12:58:32;7.28;;;4.93;;
55007;SDS011;40902;45.116;21.296;2024-01-16T13:03:50;7.60;;;4.40;;
55007;SDS011;40902;45.116;21.296;2024-01-16T13:06:20;6.68;;;4.28;;
55007;SDS011;40902;45.116;21.296;2024-01-16T13:08:47;7.38;;;3.85;;
55007;SDS011;40902;45.116;21.296;2024-01-16T13:11:13;6.38;;;4.20;;
55007;SDS011;40902;45.116;21.296;2024-01-16T13:13:46;6.05;;;4.25;;
55007;SDS011;40902;45.116;21.296;2024-01-16T13:16:16;8.80;;;5.85;;
55007;SDS011;40902;45.116;21.296;2024-01-16T13:18:42;9.00;;;4.90;;
55007;SDS011;40902;45.116;21.296;2024-01-16T13:21:08;5.95;;;3.97;;
55007;SDS011;40902;45.116;21.296;2024-01-16T13:23:34;10.30;;;4.22;;
55007;SDS011;40902;45.116;21.296;2024-01-16T13:26:00;6.38;;;4.13;;
55007;SDS011;40902;45.116;21.296;2024-01-16T13:28:32;6.10;;;4.03;;
55007;SDS011;40902;45.116;21.296;2024-01-16T13:30:58;8.52;;;4.85;;
55007;SDS011;40902;45.116;21.296;2024-01-16T13:33:24;6.32;;;3.72;;
55007;SDS011;40902;45.116;21.296;2024-01-16T13:35:53;7.45;;;4.40;;
55007;SDS011;40902;45.116;21.296;2024-01-16T13:38:19;9.35;;;5.85;;
55007;SDS011;40902;45.116;21.296;2024-01-16T13:40:46;7.55;;;5.03;;
55007;SDS011;40902;45.116;21.296;2024-01-16T13:43:12;6.75;;;4.25;;
55007;SDS011;40902;45.116;21.296;2024-01-16T13:45:38;6.05;;;3.80;;
55007;SDS011;40902;45.116;21.296;2024-01-16T13:48:04;7.45;;;4.13;;
55007;SDS011;40902;45.116;21.296;2024-01-16T13:50:33;4.60;;;3.08;;
55007;SDS011;40902;45.116;21.296;2024-01-16T13:53:00;12.75;;;7.55;;
55007;SDS011;40902;45.116;21.296;2024-01-16T13:55:26;5.60;;;3.50;;
55007;SDS011;40902;45.116;21.296;2024-01-16T13:57:53;7.43;;;4.50;;
55007;SDS011;40902;45.116;21.296;2024-01-16T14:00:19;5.15;;;2.80;;
55007;SDS011;40902;45.116;21.296;2024-01-16T14:02:45;4.53;;;3.53;;
55007;SDS011;40902;45.116;21.296;2024-01-16T14:05:12;5.40;;;3.80;;
55007;SDS011;40902;45.116;21.296;2024-01-16T14:07:45;5.18;;;3.70;;
55007;SDS011;40902;45.116;21.296;2024-01-16T14:10:15;6.13;;;3.50;;
55007;SDS011;40902;45.116;21.296;2024-01-16T14:12:42;6.13;;;3.95;;
55007;SDS011;40902;45.116;21.296;2024-01-16T14:15:09;8.32;;;5.80;;
55007;SDS011;40902;45.116;21.296;2024-01-16T14:17:46;9.68;;;4.85;;
55007;SDS011;40902;45.116;21.296;2024-01-16T14:20:15;10.27;;;4.53;;
55007;SDS011;40902;45.116;21.296;2024-01-16T14:22:42;4.82;;;3.13;;
55007;SDS011;40902;45.116;21.296;2024-01-16T14:25:09;4.90;;;3.00;;
55007;SDS011;40902;45.116;21.296;2024-01-16T14:27:43;7.03;;;4.63;;
55007;SDS011;40902;45.116;21.296;2024-01-16T14:30:13;6.68;;;3.85;;
55007;SDS011;40902;45.116;21.296;2024-01-16T14:32:40;6.85;;;4.50;;